createdAt,value
2022-09-22T00:01:30.190Z,15.10
2022-09-22T00:04:00.344Z,17.73
2022-09-22T00:06:32.909Z,20.52
2022-09-22T00:09:01.814Z,20.13
2022-09-22T00:11:32.257Z,19.30
2022-09-22T00:14:14.496Z,19.48
2022-09-22T00:16:47.173Z,19.20
2022-09-22T00:19:17.059Z,17.33
2022-09-22T00:21:45.238Z,16.92
2022-09-22T00:24:13.191Z,18.73
2022-09-22T00:26:41.541Z,17.23
2022-09-22T00:29:09.908Z,15.90
2022-09-22T00:31:38.912Z,17.63
2022-09-22T00:34:07.472Z,17.38
2022-09-22T00:36:35.567Z,16.42
2022-09-22T00:39:03.585Z,16.65
2022-09-22T00:41:34.135Z,16.48
2022-09-22T00:44:26.524Z,16.73
2022-09-22T00:47:13.283Z,15.38
2022-09-22T00:49:59.566Z,15.85
2022-09-22T00:53:00.710Z,17.58
2022-09-22T00:55:38.307Z,18.75
2022-09-22T00:58:11.978Z,18.55
2022-09-22T01:00:39.840Z,16.15
2022-09-22T01:03:12.209Z,15.50
2022-09-22T01:05:40.603Z,16.58
2022-09-22T01:08:08.567Z,16.38
2022-09-22T01:10:36.424Z,17.55
2022-09-22T01:13:31.264Z,15.73
2022-09-22T01:16:02.672Z,20.58
2022-09-22T01:18:49.526Z,19.65
2022-09-22T01:21:51.882Z,19.08
2022-09-22T01:24:45.514Z,17.13
2022-09-22T01:27:16.564Z,15.45
2022-09-22T01:30:05.518Z,17.05
2022-09-22T01:32:46.123Z,16.83
2022-09-22T01:35:28.396Z,19.77
2022-09-22T01:38:05.035Z,20.35
2022-09-22T01:40:48.885Z,21.25
2022-09-22T01:43:25.665Z,20.08
2022-09-22T01:45:53.245Z,17.42
2022-09-22T01:48:23.785Z,21.40
2022-09-22T01:51:04.643Z,20.48
2022-09-22T01:56:05.402Z,18.15
2022-09-22T01:58:39.253Z,18.83
2022-09-22T02:01:17.564Z,16.60
2022-09-22T02:04:22.097Z,20.33
2022-09-22T02:07:05.671Z,27.23
2022-09-22T02:09:35.152Z,23.23
2022-09-22T02:12:03.711Z,34.22
2022-09-22T02:14:31.595Z,54.47
2022-09-22T02:17:01.639Z,43.42
2022-09-22T02:19:33.381Z,77.32
2022-09-22T02:22:01.135Z,69.18
2022-09-22T02:24:36.118Z,56.38
2022-09-22T02:27:27.504Z,68.45
2022-09-22T02:30:05.733Z,73.53
2022-09-22T02:32:34.317Z,35.42
2022-09-22T02:35:02.274Z,33.15
2022-09-22T02:37:53.738Z,33.88
2022-09-22T02:40:49.935Z,33.63
2022-09-22T02:43:24.565Z,34.10
2022-09-22T02:46:13.615Z,30.80
2022-09-22T02:48:46.678Z,36.03
2022-09-22T02:51:14.868Z,35.22
2022-09-22T02:53:42.415Z,35.70
2022-09-22T02:56:10.087Z,43.95
2022-09-22T02:58:37.658Z,49.58
2022-09-22T03:03:37.591Z,42.97
2022-09-22T03:06:05.508Z,38.30
2022-09-22T03:08:33.511Z,37.95
2022-09-22T03:11:01.315Z,32.80
2022-09-22T03:13:29.177Z,36.25
2022-09-22T03:15:57.119Z,34.90
2022-09-22T03:18:24.955Z,33.30
2022-09-22T03:20:52.651Z,30.92
2022-09-22T03:23:20.345Z,30.27
2022-09-22T03:25:47.999Z,28.33
2022-09-22T03:28:15.997Z,28.27
2022-09-22T03:30:43.692Z,25.95
2022-09-22T03:33:11.317Z,28.05
2022-09-22T03:35:39.272Z,28.80
2022-09-22T03:38:07.030Z,30.75
2022-09-22T03:40:34.850Z,24.92
2022-09-22T03:43:02.542Z,23.70
2022-09-22T03:45:30.239Z,25.52
2022-09-22T03:47:59.192Z,46.55
2022-09-22T03:50:28.481Z,27.27
2022-09-22T03:52:57.721Z,22.83
2022-09-22T03:55:25.559Z,22.48
2022-09-22T03:57:53.128Z,21.35
2022-09-22T04:00:20.670Z,20.67
2022-09-22T04:02:48.356Z,23.52
2022-09-22T04:05:16.761Z,20.33
2022-09-22T04:07:45.558Z,20.60
2022-09-22T04:10:13.683Z,19.85
2022-09-22T04:12:41.569Z,20.40
2022-09-22T04:15:09.746Z,21.02
2022-09-22T04:17:46.538Z,21.10
2022-09-22T04:20:14.194Z,22.10
2022-09-22T04:22:41.849Z,19.10
2022-09-22T04:25:11.972Z,18.98
2022-09-22T04:27:40.826Z,22.05
2022-09-22T04:30:09.152Z,20.90
2022-09-22T04:32:36.803Z,21.75
2022-09-22T04:35:04.626Z,20.63
2022-09-22T04:37:32.441Z,20.17
2022-09-22T04:40:00.329Z,20.35
2022-09-22T04:42:28.014Z,18.20
2022-09-22T04:45:02.070Z,17.98
2022-09-22T04:47:30.297Z,18.88
2022-09-22T04:49:58.363Z,18.20
2022-09-22T04:52:26.887Z,19.80
2022-09-22T04:54:54.422Z,19.17
2022-09-22T04:57:22.078Z,22.17
2022-09-22T04:59:49.729Z,21.10
2022-09-22T05:02:17.893Z,21.95
2022-09-22T05:04:45.542Z,24.23
2022-09-22T05:07:15.131Z,26.38
2022-09-22T05:09:44.103Z,27.00
2022-09-22T05:12:11.754Z,25.77
2022-09-22T05:14:40.126Z,26.15
2022-09-22T05:17:07.785Z,27.60
2022-09-22T05:19:35.515Z,28.40
2022-09-22T05:22:03.146Z,28.23
2022-09-22T05:24:32.063Z,29.63
2022-09-22T05:27:00.107Z,29.80
2022-09-22T05:29:28.143Z,28.58
2022-09-22T05:31:55.896Z,30.77
2022-09-22T05:34:23.597Z,28.52
2022-09-22T05:36:51.477Z,22.52
2022-09-22T05:39:19.215Z,22.42
2022-09-22T05:41:49.954Z,23.50
2022-09-22T05:44:17.674Z,17.67
2022-09-22T05:46:46.901Z,22.88
2022-09-22T05:49:14.539Z,24.92
2022-09-22T05:51:42.261Z,25.42
2022-09-22T05:54:10.277Z,23.02
2022-09-22T05:56:39.373Z,22.05
2022-09-22T05:59:07.113Z,26.55
2022-09-22T06:01:34.872Z,25.33
2022-09-22T06:04:02.658Z,25.77
2022-09-22T06:06:30.665Z,28.73
2022-09-22T06:08:58.682Z,23.83
2022-09-22T06:11:26.375Z,27.75
2022-09-22T06:13:54.754Z,26.95
2022-09-22T06:16:22.474Z,27.70
2022-09-22T06:18:50.212Z,28.63
2022-09-22T06:21:17.839Z,29.48
2022-09-22T06:23:45.478Z,28.40
2022-09-22T06:26:13.086Z,29.00
2022-09-22T06:28:40.721Z,24.70
2022-09-22T06:31:08.589Z,27.08
2022-09-22T06:33:36.254Z,25.63
2022-09-22T06:36:08.182Z,29.40
2022-09-22T06:38:35.951Z,30.40
2022-09-22T06:41:04.454Z,25.08
2022-09-22T06:43:33.142Z,26.65
2022-09-22T06:46:03.000Z,25.00
2022-09-22T06:48:32.195Z,24.08
2022-09-22T06:50:59.921Z,23.90
2022-09-22T06:53:27.860Z,24.83
2022-09-22T06:55:55.617Z,25.35
2022-09-22T06:58:23.404Z,24.02
2022-09-22T07:00:51.510Z,25.13
2022-09-22T07:03:24.532Z,30.30
2022-09-22T07:06:11.134Z,25.15
2022-09-22T07:08:39.789Z,23.83
2022-09-22T07:11:10.744Z,23.75
2022-09-22T07:13:41.029Z,22.45
2022-09-22T07:16:10.482Z,22.98
2022-09-22T07:18:41.958Z,22.05
2022-09-22T07:21:16.776Z,16.38
2022-09-22T07:23:44.499Z,19.75
2022-09-22T07:26:13.911Z,20.75
2022-09-22T07:28:42.856Z,20.75
2022-09-22T07:31:13.211Z,18.13
2022-09-22T07:33:43.585Z,19.60
2022-09-22T07:36:15.334Z,19.83
2022-09-22T07:38:43.889Z,19.15
2022-09-22T07:41:13.263Z,18.88
2022-09-22T07:43:41.398Z,21.30
2022-09-22T07:46:09.365Z,20.40
2022-09-22T07:48:45.829Z,19.92
2022-09-22T07:51:20.872Z,17.85
2022-09-22T07:54:02.651Z,15.95
2022-09-22T07:58:58.894Z,14.70
2022-09-22T08:01:26.932Z,14.38
2022-09-22T08:03:57.326Z,16.73
2022-09-22T08:06:25.201Z,16.30
2022-09-22T08:08:55.550Z,18.25
2022-09-22T08:11:25.677Z,15.82
2022-09-22T08:13:55.949Z,15.07
2022-09-22T08:16:28.675Z,15.85
2022-09-22T08:18:58.299Z,17.23
2022-09-22T08:21:27.439Z,17.38
2022-09-22T08:23:56.597Z,15.75
2022-09-22T08:26:24.246Z,12.18
2022-09-22T08:28:54.459Z,11.77
2022-09-22T08:31:23.279Z,11.13
2022-09-22T08:33:54.263Z,10.60
2022-09-22T08:36:25.416Z,11.45
2022-09-22T08:38:54.584Z,11.20
2022-09-22T08:42:09.763Z,10.10
2022-09-22T08:44:44.849Z,9.80
2022-09-22T08:47:17.111Z,8.48
2022-09-22T08:50:05.878Z,9.25
2022-09-22T08:52:48.618Z,9.90
2022-09-22T08:55:24.356Z,9.77
2022-09-22T08:57:57.001Z,10.00
2022-09-22T09:00:25.811Z,9.70
2022-09-22T09:03:10.689Z,8.85
2022-09-22T09:05:48.305Z,9.98
2022-09-22T09:08:41.615Z,8.75
2022-09-22T09:11:19.441Z,8.85
2022-09-22T09:14:00.322Z,9.10
2022-09-22T09:16:44.598Z,7.85
2022-09-22T09:19:35.588Z,9.13
2022-09-22T09:22:25.534Z,7.83
2022-09-22T09:25:24.345Z,7.07
2022-09-22T09:28:01.125Z,7.05
2022-09-22T09:30:30.586Z,6.75
2022-09-22T09:33:05.738Z,6.20
2022-09-22T09:35:53.810Z,6.68
2022-09-22T09:38:29.951Z,6.32
2022-09-22T09:41:19.091Z,6.68
2022-09-22T09:43:47.116Z,6.63
2022-09-22T09:46:24.932Z,6.50
2022-09-22T09:49:02.867Z,6.38
2022-09-22T09:51:30.691Z,7.07
2022-09-22T09:53:58.470Z,6.88
2022-09-22T09:56:28.269Z,5.93
2022-09-22T09:59:25.060Z,6.75
2022-09-22T10:01:54.385Z,6.50
2022-09-22T10:04:29.347Z,6.03
2022-09-22T10:10:37.797Z,5.40
2022-09-22T10:13:18.120Z,5.57
2022-09-22T10:15:48.574Z,5.40
2022-09-22T10:18:25.325Z,5.20
2022-09-22T10:21:18.441Z,5.88
2022-09-22T10:23:50.511Z,5.78
2022-09-22T10:26:30.344Z,5.55
2022-09-22T10:29:12.975Z,5.25
2022-09-22T10:31:41.836Z,4.95
2022-09-22T10:34:31.719Z,5.53
2022-09-22T10:37:00.210Z,5.93
2022-09-22T10:39:36.818Z,4.78
2022-09-22T10:42:08.116Z,5.40
2022-09-22T10:44:39.399Z,5.10
2022-09-22T10:47:31.271Z,4.75
2022-09-22T10:50:22.679Z,4.32
2022-09-22T10:53:31.315Z,4.65
2022-09-22T10:56:08.513Z,4.60
2022-09-22T10:59:01.044Z,3.60
2022-09-22T11:01:31.267Z,3.63
2022-09-22T11:04:19.833Z,3.88
2022-09-22T11:07:24.820Z,3.90
2022-09-22T11:10:39.806Z,3.78
2022-09-22T11:13:34.528Z,3.35
2022-09-22T11:16:13.454Z,3.30
2022-09-22T11:19:06.533Z,3.35
2022-09-22T11:21:44.742Z,3.00
2022-09-22T11:24:30.468Z,2.78
2022-09-22T11:26:59.524Z,3.17
2022-09-22T11:29:51.422Z,2.65
2022-09-22T11:32:34.351Z,2.20
2022-09-22T11:35:20.226Z,2.78
2022-09-22T11:37:53.942Z,3.08
2022-09-22T11:40:25.427Z,2.80
2022-09-22T11:43:02.266Z,2.60
2022-09-22T11:45:56.993Z,2.47
2022-09-22T11:48:56.189Z,2.88
2022-09-22T11:51:35.941Z,2.80
2022-09-22T11:54:21.711Z,2.88
2022-09-22T11:56:55.696Z,3.00
2022-09-22T11:59:55.675Z,2.92
2022-09-22T12:02:27.361Z,2.90
2022-09-22T12:05:15.513Z,2.90
2022-09-22T12:07:55.921Z,2.53
2022-09-22T12:10:31.445Z,2.57
2022-09-22T12:12:59.134Z,2.80
2022-09-22T12:15:35.947Z,3.10
2022-09-22T12:18:14.062Z,2.58
2022-09-22T12:21:13.764Z,2.58
2022-09-22T12:23:45.191Z,2.78
2022-09-22T12:26:24.792Z,2.75
2022-09-22T12:28:52.467Z,2.47
2022-09-22T12:31:21.454Z,2.60
2022-09-22T12:33:54.209Z,2.50
2022-09-22T12:36:35.218Z,3.03
2022-09-22T12:39:25.602Z,3.00
2022-09-22T12:42:04.250Z,2.65
2022-09-22T12:44:43.305Z,3.53
2022-09-22T12:47:16.839Z,2.90
2022-09-22T12:49:49.505Z,2.97
2022-09-22T12:52:42.285Z,3.00
2022-09-22T12:55:28.436Z,2.75
2022-09-22T12:57:57.722Z,2.70
2022-09-22T13:00:32.909Z,3.28
2022-09-22T13:03:01.794Z,2.60
2022-09-22T13:05:29.406Z,2.92
2022-09-22T13:07:57.173Z,2.42
2022-09-22T13:10:25.174Z,2.72
2022-09-22T13:13:09.427Z,2.80
2022-09-22T13:15:51.316Z,2.42
2022-09-22T13:18:41.393Z,2.70
2022-09-22T13:21:12.070Z,2.65
2022-09-22T13:23:39.642Z,2.53
2022-09-22T13:26:17.255Z,2.70
2022-09-22T13:28:44.873Z,6.93
2022-09-22T13:31:14.752Z,17.30
2022-09-22T13:33:43.503Z,6.97
2022-09-22T13:36:17.891Z,2.92
2022-09-22T13:38:51.266Z,2.80
2022-09-22T13:41:21.370Z,2.72
2022-09-22T13:43:49.245Z,2.53
2022-09-22T13:46:45.681Z,2.70
2022-09-22T13:49:37.428Z,3.08
2022-09-22T13:52:07.469Z,2.58
2022-09-22T13:54:36.695Z,3.85
2022-09-22T13:57:06.479Z,3.72
2022-09-22T13:59:38.685Z,7.60
2022-09-22T14:02:11.434Z,7.60
2022-09-22T14:04:50.902Z,7.30
2022-09-22T14:07:19.616Z,9.00
2022-09-22T14:09:47.618Z,4.07
2022-09-22T14:12:15.712Z,5.30
2022-09-22T14:14:44.201Z,4.38
2022-09-22T14:17:16.737Z,4.00
2022-09-22T14:20:04.781Z,3.90
2022-09-22T14:22:33.488Z,5.00
2022-09-22T14:25:02.272Z,5.63
2022-09-22T14:27:49.061Z,5.03
2022-09-22T14:30:17.944Z,5.05
2022-09-22T14:32:51.075Z,4.78
2022-09-22T14:35:33.106Z,6.13
2022-09-22T14:38:08.252Z,7.50
2022-09-22T14:40:54.302Z,8.27
2022-09-22T14:43:24.306Z,15.32
2022-09-22T14:46:07.424Z,28.17
2022-09-22T14:48:37.001Z,16.00
2022-09-22T14:51:20.485Z,23.05
2022-09-22T14:53:50.828Z,22.20
2022-09-22T14:56:22.449Z,21.98
2022-09-22T14:58:52.408Z,8.20
2022-09-22T15:01:41.598Z,5.18
2022-09-22T15:04:13.816Z,5.63
2022-09-22T15:06:41.238Z,5.20
2022-09-22T15:09:17.027Z,6.82
2022-09-22T15:11:50.541Z,5.45
2022-09-22T15:14:41.683Z,4.97
2022-09-22T15:17:53.149Z,4.97
2022-09-22T15:20:57.512Z,5.33
2022-09-22T15:23:26.779Z,8.52
2022-09-22T15:25:55.483Z,36.03
2022-09-22T15:28:25.245Z,8.50
2022-09-22T15:30:53.211Z,6.68
2022-09-22T15:33:21.330Z,8.90
2022-09-22T15:36:13.175Z,6.40
2022-09-22T15:38:41.408Z,6.70
2022-09-22T15:41:14.324Z,6.53
2022-09-22T15:43:42.189Z,6.93
2022-09-22T15:46:37.364Z,7.22
2022-09-22T15:49:21.117Z,45.72
2022-09-22T15:51:52.085Z,90.60
2022-09-22T15:54:22.057Z,57.10
2022-09-22T15:56:51.506Z,38.05
2022-09-22T15:59:22.013Z,14.25
2022-09-22T16:01:50.003Z,11.40
2022-09-22T16:04:19.006Z,8.05
2022-09-22T16:06:54.522Z,8.68
2022-09-22T16:09:25.418Z,9.30
2022-09-22T16:11:54.009Z,8.93
2022-09-22T16:14:23.009Z,9.73
2022-09-22T16:16:51.864Z,13.68
2022-09-22T16:19:20.432Z,27.27
2022-09-22T16:21:52.138Z,43.03
2022-09-22T16:24:22.573Z,29.50
2022-09-22T16:26:51.983Z,49.47
2022-09-22T16:29:19.692Z,46.63
2022-09-22T16:31:47.402Z,41.97
2022-09-22T16:34:15.264Z,28.90
2022-09-22T16:36:44.683Z,26.23
2022-09-22T16:39:12.293Z,32.55
2022-09-22T16:41:44.282Z,25.83
2022-09-22T16:44:12.061Z,17.60
2022-09-22T16:46:39.728Z,23.60
2022-09-22T16:49:08.260Z,18.05
2022-09-22T16:51:41.114Z,19.05
2022-09-22T16:54:13.468Z,17.50
2022-09-22T16:56:44.067Z,11.70
2022-09-22T16:59:15.500Z,9.63
2022-09-22T17:04:13.177Z,21.48
2022-09-22T17:06:41.791Z,16.27
2022-09-22T17:09:10.307Z,15.35
2022-09-22T17:11:40.374Z,11.35
2022-09-22T17:14:12.553Z,15.63
2022-09-22T17:16:44.130Z,19.90
2022-09-22T17:19:17.292Z,18.10
2022-09-22T17:21:48.352Z,20.02
2022-09-22T17:24:16.271Z,30.48
2022-09-22T17:26:52.249Z,42.08
2022-09-22T17:29:26.572Z,29.75
2022-09-22T17:32:04.510Z,15.18
2022-09-22T17:34:33.068Z,15.80
2022-09-22T17:37:01.004Z,13.60
2022-09-22T17:39:29.525Z,12.60
2022-09-22T17:41:57.142Z,14.30
2022-09-22T17:44:28.602Z,15.73
2022-09-22T17:47:16.245Z,58.20
2022-09-22T17:50:02.344Z,50.15
2022-09-22T17:53:08.679Z,66.20
2022-09-22T17:55:36.503Z,25.85
2022-09-22T17:58:04.783Z,16.77
2022-09-22T18:00:33.967Z,12.55
2022-09-22T18:03:02.414Z,13.80
2022-09-22T18:05:32.288Z,13.60
2022-09-22T18:08:00.072Z,46.03
2022-09-22T18:10:32.490Z,36.30
2022-09-22T18:13:01.095Z,36.15
2022-09-22T18:15:29.383Z,38.10
2022-09-22T18:17:58.228Z,44.50
2022-09-22T18:20:26.351Z,27.00
2022-09-22T18:22:54.433Z,49.45
2022-09-22T18:25:25.659Z,61.53
2022-09-22T18:27:54.682Z,22.73
2022-09-22T18:30:22.413Z,24.50
2022-09-22T18:32:51.877Z,14.18
2022-09-22T18:35:20.293Z,21.92
2022-09-22T18:37:47.954Z,14.35
2022-09-22T18:40:17.205Z,41.70
2022-09-22T18:42:45.434Z,27.50
2022-09-22T18:45:14.347Z,15.38
2022-09-22T18:47:43.828Z,13.20
2022-09-22T18:50:11.877Z,10.95
2022-09-22T18:52:43.001Z,10.50
2022-09-22T18:55:11.776Z,11.27
2022-09-22T18:57:40.233Z,10.25
2022-09-22T19:00:09.543Z,17.00
2022-09-22T19:02:37.790Z,22.50
2022-09-22T19:05:05.899Z,26.77
2022-09-22T19:07:43.851Z,9.95
2022-09-22T19:10:18.975Z,10.98
2022-09-22T19:12:46.624Z,10.65
2022-09-22T19:15:16.797Z,9.35
2022-09-22T19:17:46.318Z,10.00
2022-09-22T19:20:15.793Z,9.23
2022-09-22T19:22:43.447Z,11.23
2022-09-22T19:25:11.865Z,12.70
2022-09-22T19:27:40.121Z,49.53
2022-09-22T19:30:09.549Z,23.75
2022-09-22T19:32:37.490Z,18.38
2022-09-22T19:35:06.122Z,9.60
2022-09-22T19:37:34.718Z,9.77
2022-09-22T19:40:02.574Z,8.88
2022-09-22T19:42:30.396Z,8.52
2022-09-22T19:44:58.266Z,8.68
2022-09-22T19:47:25.915Z,8.20
2022-09-22T19:49:53.528Z,9.68
2022-09-22T19:52:21.397Z,9.73
2022-09-22T19:54:51.270Z,9.57
2022-09-22T19:57:19.191Z,8.73
2022-09-22T19:59:46.784Z,9.98
2022-09-22T20:02:14.990Z,9.40
2022-09-22T20:04:42.588Z,9.05
2022-09-22T20:07:11.015Z,23.83
2022-09-22T20:09:39.059Z,13.55
2022-09-22T20:12:06.715Z,11.60
2022-09-22T20:14:34.608Z,92.15
2022-09-22T20:17:07.053Z,65.70
2022-09-22T20:19:40.497Z,36.03
2022-09-22T20:25:01.617Z,69.82
2022-09-22T20:27:33.921Z,73.32
2022-09-22T20:30:01.708Z,59.58
2022-09-22T20:32:31.742Z,53.78
2022-09-22T20:34:59.468Z,66.68
2022-09-22T20:37:27.294Z,68.32
2022-09-22T20:39:56.195Z,11.15
2022-09-22T20:42:24.283Z,10.90
2022-09-22T20:44:52.074Z,9.77
2022-09-22T20:47:21.313Z,8.98
2022-09-22T20:49:51.751Z,9.35
2022-09-22T20:52:20.366Z,8.98
2022-09-22T20:54:48.641Z,8.55
2022-09-22T20:57:16.994Z,8.15
2022-09-22T20:59:45.964Z,9.50
2022-09-22T21:02:14.207Z,10.18
2022-09-22T21:04:42.173Z,10.57
2022-09-22T21:07:11.449Z,10.93
2022-09-22T21:09:57.645Z,11.85
2022-09-22T21:12:31.082Z,11.52
2022-09-22T21:14:59.307Z,11.60
2022-09-22T21:17:32.978Z,10.43
2022-09-22T21:20:01.037Z,10.85
2022-09-22T21:22:29.038Z,11.25
2022-09-22T21:24:57.062Z,11.48
2022-09-22T21:27:25.250Z,10.45
2022-09-22T21:29:53.633Z,10.32
2022-09-22T21:32:21.330Z,9.88
2022-09-22T21:34:49.335Z,10.95
2022-09-22T21:37:17.154Z,11.38
2022-09-22T21:39:44.930Z,11.57
2022-09-22T21:42:12.679Z,11.00
2022-09-22T21:44:40.379Z,12.15
2022-09-22T21:47:08.217Z,11.10
2022-09-22T21:49:35.930Z,10.48
2022-09-22T21:52:03.593Z,10.82
2022-09-22T21:54:31.569Z,9.80
2022-09-22T21:56:59.177Z,9.25
2022-09-22T21:59:27.089Z,9.43
2022-09-22T22:01:54.834Z,9.05
2022-09-22T22:04:22.644Z,9.40
2022-09-22T22:06:51.765Z,9.23
2022-09-22T22:09:20.710Z,9.05
2022-09-22T22:11:55.677Z,9.25
2022-09-22T22:14:24.380Z,7.68
2022-09-22T22:16:53.262Z,8.13
2022-09-22T22:19:22.224Z,7.57
2022-09-22T22:21:50.825Z,7.22
2022-09-22T22:24:30.126Z,7.47
2022-09-22T22:27:01.720Z,7.95
2022-09-22T22:29:34.905Z,7.65
2022-09-22T22:32:04.105Z,8.55
2022-09-22T22:34:31.848Z,8.52
2022-09-22T22:36:59.582Z,10.38
2022-09-22T22:39:27.224Z,8.07
2022-09-22T22:41:55.476Z,7.70
2022-09-22T22:44:23.142Z,7.40
2022-09-22T22:46:51.618Z,8.52
2022-09-22T22:49:19.780Z,7.78
2022-09-22T22:51:49.339Z,20.73
2022-09-22T22:54:16.955Z,8.98
2022-09-22T22:56:48.909Z,8.43
2022-09-22T22:59:18.778Z,8.52
2022-09-22T23:01:46.356Z,8.98
2022-09-22T23:04:16.876Z,8.32
2022-09-22T23:06:47.443Z,8.88
2022-09-22T23:09:16.142Z,8.65
2022-09-22T23:11:44.149Z,9.57
2022-09-22T23:14:13.094Z,9.68
2022-09-22T23:16:46.223Z,21.52
2022-09-22T23:19:15.531Z,36.03
2022-09-22T23:21:45.293Z,26.00
2022-09-22T23:24:15.704Z,21.63
2022-09-22T23:26:44.145Z,22.65
2022-09-22T23:29:12.545Z,11.95
2022-09-22T23:31:40.121Z,10.77
2022-09-22T23:34:08.143Z,9.82
2022-09-22T23:36:36.006Z,17.48
2022-09-22T23:39:04.483Z,12.95
2022-09-22T23:41:34.257Z,10.82
2022-09-22T23:44:03.375Z,9.10
2022-09-22T23:46:31.505Z,9.75
2022-09-22T23:49:02.606Z,9.00
2022-09-22T23:51:30.782Z,8.77
2022-09-22T23:53:58.662Z,8.95
2022-09-22T23:56:26.365Z,9.40
2022-09-22T23:58:54.006Z,9.45
